Accueil
METAR-TAF:

METAR-TAF

Aéroports :

Aéroport d'Avignon-Provence

Avignon, France

latitude: 43-54-26N, longitude: 004-54-07E, altitude: 38 m

Observation

Le bulletin a été fait il y a 15 minutes, à 19:00 UTC
Vent 3 kt de sud
Température 26°C
Humidité 54%
Pression 1018 hPa
Visibilité 10 km ou plus
pas de nuages en-dessous de 1500 mètres et pas de cumulonimbus.

METAR: LFMV 201900Z AUTO 17003KT CAVOK 26/16 Q1018 NOSIG

Heure: 21:15 (19:15 UTC)

Prévision

Le bulletin a été fait il y a 5 heures et 15 minutes, à 14:00 UTC
Prévision valable du 20 à 15 UTC au 21 à 15 UTC
Vent 10 kt de sud
Visibilité 10 km ou plus
pas de nuages en-dessous de 1500 mètres et pas de cumulonimbus.
Evoluant progressivement
du 20 à 18 UTC au 20 à 20 UTC
Vent 5 kt de direction variable
Evoluant progressivement
du 21 à 13 UTC au 21 à 14 UTC
Vent 15 kt de nord

TAF: LFMV 201400Z 2015/2115 19010KT CAVOK BECMG 2018/2020 VRB05KT BECMG 2113/2114 35015KT

Observations et prévisions météorologiques de plus de 4000 aéroports (messages METAR et TAF).

Les stations disponibles sont représentées par des disques jaunes et rouges sur la carte.

Passer la souris dessus pour voir le nom de la station.

Cliquer dessus pour voir les observations et prévisions météorologiques.

Pour changer de carte: cliquez sur les boutons verts avec une croix noire pour zoomer, sur le bouton vert avec un tiret pour effectuer un zoom arrière, ou sur les flèches vertes pour les cartes adjacentes.


METAR-TAF: